Time;durP1;ratioP1;P1;durP2;ratioP2;P2;SDS_P1;SDS_P2;PMS_P1;PMS_P2;Temp;Humidity;BMP_temperature;BMP_pressure;BME280_temperature;BME280_humidity;BME280_pressure;Samples;Min_cycle;Max_cycle;Signal;HPM_P1;HPM_P2
2022/08/02 00:00:58;;;;;;;2.50;2.40;;;27.80;41.10;;;;;;5113668;28;20444;-77
2022/08/02 00:03:26;;;;;;;2.67;2.10;;;27.80;41.00;;;;;;5112827;28;20436;-77
2022/08/02 00:05:54;;;;;;;2.37;2.20;;;27.80;41.00;;;;;;5112900;28;20431;-76
2022/08/02 00:08:22;;;;;;;3.37;2.00;;;27.80;41.00;;;;;;5112984;28;20407;-77
2022/08/02 00:10:50;;;;;;;2.63;2.07;;;27.70;41.00;;;;;;5108143;28;20434;-77
2022/08/02 00:13:17;;;;;;;3.03;2.23;;;27.70;41.10;;;;;;5112805;28;20490;-77
2022/08/02 00:15:46;;;;;;;3.20;2.17;;;27.70;41.10;;;;;;5112264;28;20424;-77
2022/08/02 00:18:14;;;;;;;2.43;2.23;;;27.70;41.00;;;;;;5113186;28;20439;-77
2022/08/02 00:20:42;;;;;;;2.30;2.20;;;27.60;41.00;;;;;;5112997;28;20440;-77
2022/08/02 00:23:10;;;;;;;2.33;2.10;;;27.70;41.00;;;;;;5113319;28;20447;-77
2022/08/02 00:25:38;;;;;;;2.10;2.00;;;27.60;41.10;;;;;;5110897;28;20443;-77
2022/08/02 00:28:22;;;;;;;2.03;1.90;;;27.60;41.10;;;;;;5110532;28;20447;-77
2022/08/02 00:30:56;;;;;;;4.67;2.03;;;27.60;41.10;;;;;;5111719;28;20418;-77
2022/08/02 00:33:24;;;;;;;3.13;2.00;;;27.60;41.10;;;;;;5112326;28;20459;-77
2022/08/02 00:36:12;;;;;;;2.40;1.90;;;27.50;41.10;;;;;;5110061;28;20604;-76
2022/08/02 00:38:40;;;;;;;1.70;1.60;;;27.50;41.20;;;;;;5112844;28;20414;-77
2022/08/02 00:41:12;;;;;;;3.57;2.50;;;27.50;41.10;;;;;;5110690;28;20503;-77
2022/08/02 00:43:40;;;;;;;3.27;2.20;;;27.50;41.30;;;;;;5109057;27;20988;-77
2022/08/02 00:46:09;;;;;;;2.10;1.97;;;27.50;41.30;;;;;;5113165;28;20421;-77
2022/08/02 00:48:37;;;;;;;3.50;2.03;;;27.50;41.30;;;;;;5113889;28;20455;-77
2022/08/02 00:51:10;;;;;;;3.10;2.50;;;27.50;41.40;;;;;;5108899;28;20464;-77
2022/08/02 00:53:38;;;;;;;2.13;2.03;;;27.50;41.30;;;;;;5116434;28;20524;-77
2022/08/02 00:56:06;;;;;;;8.30;1.90;;;27.50;41.30;;;;;;5117218;28;20428;-77
2022/08/02 00:58:34;;;;;;;6.13;1.90;;;27.40;41.20;;;;;;5115862;27;20422;-77
2022/08/02 01:01:02;;;;;;;2.90;2.27;;;27.40;41.30;;;;;;5109875;28;20449;-77
2022/08/02 01:03:31;;;;;;;3.20;2.10;;;27.40;41.40;;;;;;5113294;28;20414;-77
2022/08/02 01:05:59;;;;;;;2.07;1.93;;;27.40;41.30;;;;;;5112708;28;20446;-77
2022/08/02 01:08:42;;;;;;;3.93;2.03;;;27.40;41.40;;;;;;5113383;28;20422;-77
2022/08/02 01:11:11;;;;;;;2.47;2.27;;;27.40;41.40;;;;;;5113955;28;20455;-77
2022/08/02 01:13:39;;;;;;;2.10;2.00;;;27.30;41.20;;;;;;5113267;28;20544;-77
2022/08/02 01:16:10;;;;;;;7.70;2.30;;;27.30;41.40;;;;;;5112704;28;20445;-77
2022/08/02 01:18:41;;;;;;;3.37;1.87;;;27.30;41.60;;;;;;5106290;28;20437;-77
2022/08/02 01:21:18;;;;;;;2.90;1.80;;;27.30;41.30;;;;;;5113259;28;20407;-78
2022/08/02 01:23:54;;;;;;;4.20;2.03;;;27.30;41.40;;;;;;5113544;28;20444;-77
2022/08/02 01:26:32;;;;;;;1.90;1.80;;;27.20;41.40;;;;;;5112962;28;20417;-77
2022/08/02 01:29:03;;;;;;;2.23;2.03;;;27.20;41.40;;;;;;5113740;28;20416;-77
2022/08/02 01:31:34;;;;;;;2.00;1.90;;;27.20;41.40;;;;;;5114656;28;20521;-77
2022/08/02 01:34:04;;;;;;;2.60;1.83;;;27.20;41.40;;;;;;5112337;28;20450;-77
2022/08/02 01:36:34;;;;;;;3.13;2.37;;;27.20;41.30;;;;;;5109166;28;20410;-77
2022/08/02 01:39:02;;;;;;;2.30;2.10;;;27.20;41.50;;;;;;5113333;28;20432;-77
2022/08/02 01:41:30;;;;;;;2.83;1.90;;;27.20;41.50;;;;;;5112996;28;20781;-77
2022/08/02 01:43:59;;;;;;;2.30;2.00;;;27.20;41.50;;;;;;5113298;28;20434;-77
2022/08/02 01:46:29;;;;;;;5.77;2.10;;;27.10;41.50;;;;;;5112908;28;20435;-77
2022/08/02 01:48:57;;;;;;;5.67;1.90;;;27.10;41.50;;;;;;5114383;28;20509;-77
2022/08/02 01:54:07;;;;;;;2.57;1.80;;;27.10;41.60;;;;;;5109554;28;20479;-78
2022/08/02 01:56:35;;;;;;;2.30;1.77;;;27.10;41.50;;;;;;5116129;28;20411;-77
2022/08/02 01:59:03;;;;;;;2.13;2.00;;;27.10;41.40;;;;;;5114336;28;20918;-76
2022/08/02 02:01:32;;;;;;;4.13;1.90;;;27.10;41.50;;;;;;5109000;28;20434;-77
2022/08/02 02:04:00;;;;;;;2.23;2.03;;;27.00;41.50;;;;;;5114641;28;20561;-77
2022/08/02 02:06:28;;;;;;;2.13;2.03;;;27.00;41.50;;;;;;5113932;28;20435;-77
2022/08/02 02:08:56;;;;;;;1.87;1.77;;;27.00;41.60;;;;;;5102031;28;20441;-77
2022/08/02 02:11:23;;;;;;;3.10;2.03;;;27.00;41.60;;;;;;5108655;28;20424;-78
2022/08/02 02:14:11;;;;;;;4.30;1.90;;;27.00;41.50;;;;;;5113709;27;20848;-77
2022/08/02 02:16:42;;;;;;;1.93;1.83;;;27.00;41.60;;;;;;5111936;28;20460;-77
2022/08/02 02:19:09;;;;;;;2.93;2.00;;;27.00;41.50;;;;;;5112327;28;20437;-77
2022/08/02 02:21:37;;;;;;;2.30;2.10;;;27.00;41.60;;;;;;5112975;28;20435;-77
2022/08/02 02:24:08;;;;;;;2.23;1.87;;;26.90;41.60;;;;;;5105644;28;20472;-77
2022/08/02 02:26:38;;;;;;;7.13;2.00;;;27.00;41.60;;;;;;5112094;28;20571;-77
2022/08/02 02:29:19;;;;;;;2.40;1.80;;;26.90;41.60;;;;;;5113012;28;20426;-77
2022/08/02 02:31:48;;;;;;;1.70;1.60;;;26.90;41.70;;;;;;5112952;28;20438;-77
2022/08/02 02:34:17;;;;;;;2.13;2.00;;;26.90;41.80;;;;;;5113209;28;20457;-76
2022/08/02 02:36:47;;;;;;;2.30;1.70;;;26.90;41.80;;;;;;5111726;28;20428;-77
2022/08/02 02:39:16;;;;;;;2.03;1.80;;;26.90;41.80;;;;;;5112596;28;20505;-77
2022/08/02 02:41:44;;;;;;;1.83;1.70;;;26.90;41.80;;;;;;5110945;28;20416;-77
2022/08/02 02:44:13;;;;;;;2.20;2.00;;;26.80;41.90;;;;;;5106843;28;20435;-77
2022/08/02 02:46:41;;;;;;;3.23;1.57;;;26.80;41.90;;;;;;5111993;28;20407;-77
2022/08/02 02:49:11;;;;;;;5.17;2.00;;;26.80;41.90;;;;;;5112244;28;20442;-77
2022/08/02 02:51:39;;;;;;;1.90;1.80;;;26.80;41.90;;;;;;5111845;28;20505;-77
2022/08/02 02:54:07;;;;;;;1.60;1.60;;;26.80;41.80;;;;;;5111643;28;20453;-77
2022/08/02 02:56:55;;;;;;;1.80;1.70;;;26.80;41.80;;;;;;5110973;28;20414;-78
2022/08/02 02:59:23;;;;;;;1.60;1.50;;;26.80;41.80;;;;;;5104749;28;20455;-77
2022/08/02 03:01:52;;;;;;;1.70;1.60;;;26.80;41.90;;;;;;5111737;28;20411;-77
2022/08/02 03:04:26;;;;;;;1.97;1.87;;;26.80;41.80;;;;;;5111940;28;20487;-76
2022/08/02 03:07:14;;;;;;;1.70;1.60;;;26.80;41.80;;;;;;5111350;28;20432;-77
2022/08/02 03:09:42;;;;;;;2.07;1.87;;;26.70;41.80;;;;;;5111250;28;20426;-77
2022/08/02 03:12:10;;;;;;;1.60;1.50;;;26.70;41.90;;;;;;5111975;28;20526;-77
2022/08/02 03:14:41;;;;;;;2.37;1.60;;;26.70;41.90;;;;;;5108472;28;21264;-77
2022/08/02 03:17:09;;;;;;;4.50;1.70;;;26.70;41.90;;;;;;5108808;28;20468;-77
2022/08/02 03:19:38;;;;;;;1.67;1.57;;;26.70;41.90;;;;;;5112563;28;20420;-77
2022/08/02 03:22:06;;;;;;;1.80;1.70;;;26.60;41.90;;;;;;5113319;28;20421;-77
2022/08/02 03:24:34;;;;;;;4.00;1.50;;;26.60;42.00;;;;;;5111700;28;20435;-77
2022/08/02 03:27:02;;;;;;;1.70;1.60;;;26.70;42.00;;;;;;5111558;28;20531;-77
2022/08/02 03:29:30;;;;;;;2.60;1.67;;;26.60;41.90;;;;;;5112085;28;20418;-77
2022/08/02 03:32:01;;;;;;;1.70;1.60;;;26.60;42.00;;;;;;5106792;28;20492;-76
2022/08/02 03:34:29;;;;;;;1.70;1.60;;;26.60;42.00;;;;;;5107496;28;20449;-76
2022/08/02 03:36:59;;;;;;;1.63;1.53;;;26.60;42.10;;;;;;5111904;28;20414;-76
2022/08/02 03:39:26;;;;;;;2.93;2.40;;;26.60;41.90;;;;;;5111679;28;20425;-77
2022/08/02 03:41:55;;;;;;;2.17;2.07;;;26.60;42.00;;;;;;5111029;28;20440;-77
2022/08/02 03:44:23;;;;;;;4.30;2.07;;;26.50;42.00;;;;;;5111738;28;20792;-77
2022/08/02 03:46:51;;;;;;;1.63;1.63;;;26.50;42.10;;;;;;5111196;28;20441;-77
2022/08/02 03:49:19;;;;;;;4.13;2.10;;;26.50;41.90;;;;;;5105968;28;20434;-76
2022/08/02 03:51:47;;;;;;;2.80;1.73;;;26.50;41.80;;;;;;5109891;28;20449;-77
2022/08/02 03:54:17;;;;;;;2.80;1.80;;;26.50;41.80;;;;;;5110882;28;20493;-77
2022/08/02 03:56:45;;;;;;;3.63;2.10;;;26.50;42.00;;;;;;5110774;28;20446;-76
2022/08/02 03:59:14;;;;;;;2.53;2.10;;;26.50;42.00;;;;;;5111656;28;20468;-76
2022/08/02 04:01:42;;;;;;;3.80;2.03;;;26.50;42.10;;;;;;5111930;28;20452;-76
2022/08/02 04:04:09;;;;;;;1.73;1.63;;;26.50;41.90;;;;;;5112479;28;20448;-77
2022/08/02 04:06:37;;;;;;;1.93;1.80;;;26.50;42.00;;;;;;5111674;28;20436;-77
2022/08/02 04:09:08;;;;;;;1.80;1.47;;;26.50;41.90;;;;;;5104770;28;20465;-77
2022/08/02 04:11:37;;;;;;;2.03;1.93;;;26.50;41.90;;;;;;5111398;28;20423;-76
2022/08/02 04:14:07;;;;;;;1.73;1.63;;;26.50;41.90;;;;;;5110862;28;20450;-77
2022/08/02 04:16:42;;;;;;;8.20;1.90;;;26.40;41.90;;;;;;5110727;28;20471;-77
2022/08/02 04:19:11;;;;;;;2.00;1.90;;;26.50;42.00;;;;;;5110822;28;20534;-76
2022/08/02 04:21:43;;;;;;;1.97;1.83;;;26.40;41.90;;;;;;5110889;28;20527;-77
2022/08/02 04:24:20;;;;;;;1.80;1.70;;;26.40;41.80;;;;;;5108730;28;20467;-77
2022/08/02 04:26:53;;;;;;;4.30;1.50;;;26.50;41.80;;;;;;5110222;28;20489;-77
2022/08/02 04:29:24;;;;;;;3.43;1.90;;;26.50;41.80;;;;;;5110687;28;20418;-77
2022/08/02 04:31:53;;;;;;;1.57;1.47;;;26.40;41.80;;;;;;5110714;28;20474;-77
2022/08/02 04:34:21;;;;;;;2.40;1.70;;;26.40;41.70;;;;;;5110231;28;20471;-78
2022/08/02 04:36:49;;;;;;;4.63;2.00;;;26.40;41.70;;;;;;5111409;28;20530;-77
2022/08/02 04:39:17;;;;;;;2.17;1.47;;;26.40;41.70;;;;;;5114326;28;20450;-77
2022/08/02 04:41:45;;;;;;;1.70;1.47;;;26.40;41.70;;;;;;5111085;28;20460;-77
2022/08/02 04:44:14;;;;;;;2.40;1.57;;;26.40;41.60;;;;;;5114028;28;20483;-77
2022/08/02 04:46:43;;;;;;;2.13;1.70;;;26.40;41.70;;;;;;5113207;28;20442;-77
2022/08/02 04:49:11;;;;;;;1.63;1.53;;;26.40;41.70;;;;;;5113943;28;20920;-76
2022/08/02 04:51:39;;;;;;;1.93;1.83;;;26.40;41.70;;;;;;5113886;28;20418;-77
2022/08/02 04:54:07;;;;;;;1.63;1.53;;;26.40;41.60;;;;;;5113620;28;20482;-77
2022/08/02 04:56:36;;;;;;;1.53;1.43;;;26.40;41.60;;;;;;5113534;28;20439;-77
2022/08/02 04:59:04;;;;;;;1.80;1.70;;;26.40;41.50;;;;;;5112073;28;20448;-78
2022/08/02 05:01:34;;;;;;;2.37;1.70;;;26.40;41.60;;;;;;5113064;28;20521;-77
2022/08/02 05:04:02;;;;;;;1.63;1.53;;;26.40;41.60;;;;;;5115559;28;20472;-77
2022/08/02 05:06:29;;;;;;;1.80;1.67;;;26.40;41.60;;;;;;5114486;28;20406;-77
2022/08/02 05:08:57;;;;;;;4.00;1.50;;;26.40;41.60;;;;;;5115290;28;20479;-77
2022/08/02 05:11:25;;;;;;;2.70;1.80;;;26.40;41.60;;;;;;5114574;28;20440;-77
2022/08/02 05:14:03;;;;;;;2.27;1.40;;;26.40;41.50;;;;;;5114238;28;20526;-78
2022/08/02 05:16:31;;;;;;;1.80;1.70;;;26.30;41.50;;;;;;5107406;28;20568;-77
2022/08/02 05:19:00;;;;;;;3.53;1.90;;;26.40;41.60;;;;;;5105435;28;20433;-78
2022/08/02 05:21:30;;;;;;;2.63;1.50;;;26.40;41.50;;;;;;5114301;28;20423;-78
2022/08/02 05:23:58;;;;;;;4.80;1.60;;;26.40;41.60;;;;;;5113691;28;20562;-77
2022/08/02 05:26:25;;;;;;;1.93;1.30;;;26.40;41.60;;;;;;5113362;28;20444;-77
2022/08/02 05:28:53;;;;;;;4.40;1.73;;;26.40;41.50;;;;;;5113779;27;20440;-77
2022/08/02 05:31:21;;;;;;;1.60;1.50;;;26.40;41.40;;;;;;5113624;28;20438;-77
2022/08/02 05:33:49;;;;;;;1.73;1.63;;;26.40;41.60;;;;;;5106546;28;20469;-77
2022/08/02 05:36:18;;;;;;;1.50;1.40;;;26.40;41.50;;;;;;5113107;28;20444;-78
2022/08/02 05:38:49;;;;;;;2.70;1.67;;;26.40;41.40;;;;;;5114678;28;20441;-77
2022/08/02 05:41:17;;;;;;;2.87;1.60;;;26.40;41.40;;;;;;5114688;28;20448;-77
2022/08/02 05:43:46;;;;;;;1.60;1.50;;;26.40;41.50;;;;;;5114850;28;20555;-77
2022/08/02 05:46:14;;;;;;;1.77;1.50;;;26.40;41.50;;;;;;5115859;28;20466;-77
2022/08/02 05:48:43;;;;;;;2.20;1.50;;;26.40;41.50;;;;;;5112634;28;20531;-77
2022/08/02 05:51:13;;;;;;;2.60;1.50;;;26.40;41.40;;;;;;5107285;28;20515;-77
2022/08/02 05:53:46;;;;;;;2.83;1.20;;;26.40;41.40;;;;;;5113055;28;20470;-77
2022/08/02 05:56:18;;;;;;;4.07;2.03;;;26.40;41.30;;;;;;5112546;28;20476;-78
2022/08/02 05:58:50;;;;;;;2.07;1.80;;;26.40;41.30;;;;;;5112825;28;20452;-77
2022/08/02 06:01:23;;;;;;;2.27;1.57;;;26.40;41.30;;;;;;5112729;28;20470;-77
2022/08/02 06:03:51;;;;;;;1.10;1.10;;;26.40;41.30;;;;;;5112093;28;20467;-78
2022/08/02 06:06:22;;;;;;;1.57;1.47;;;26.40;41.30;;;;;;5112332;28;20446;-77
2022/08/02 06:08:55;;;;;;;5.00;1.50;;;26.40;41.20;;;;;;5106784;28;20537;-77
2022/08/02 06:11:23;;;;;;;1.50;1.30;;;26.40;41.30;;;;;;5112284;28;20432;-78
2022/08/02 06:13:51;;;;;;;1.60;1.47;;;26.40;41.30;;;;;;5111894;28;20460;-78
2022/08/02 06:16:19;;;;;;;1.70;1.60;;;26.40;41.20;;;;;;5111472;28;20483;-77
2022/08/02 06:18:59;;;;;;;1.47;1.30;;;26.50;41.30;;;;;;5112737;28;20500;-77
2022/08/02 06:21:27;;;;;;;3.57;1.50;;;26.50;41.20;;;;;;5112463;28;20501;-78
2022/08/02 06:24:17;;;;;;;2.50;1.70;;;26.50;41.30;;;;;;5110981;28;20449;-77
2022/08/02 06:26:45;;;;;;;2.70;1.67;;;26.50;41.20;;;;;;5104117;28;20448;-77
2022/08/02 06:29:13;;;;;;;2.00;1.40;;;26.50;41.20;;;;;;5111653;28;20461;-77
2022/08/02 06:31:41;;;;;;;1.57;1.40;;;26.50;41.10;;;;;;5111673;28;20441;-77
2022/08/02 06:34:11;;;;;;;1.97;1.50;;;26.60;41.20;;;;;;5111294;28;20451;-78
2022/08/02 06:36:42;;;;;;;2.53;1.50;;;26.60;41.20;;;;;;5110979;28;20450;-77
2022/08/02 06:39:14;;;;;;;1.73;1.63;;;26.60;41.10;;;;;;5111563;28;20438;-77
2022/08/02 06:41:43;;;;;;;2.77;1.43;;;26.60;41.20;;;;;;5111550;28;20431;-77
2022/08/02 06:44:11;;;;;;;1.60;1.50;;;26.60;41.10;;;;;;5106777;28;20447;-77
2022/08/02 06:46:58;;;;;;;1.67;1.57;;;26.70;41.00;;;;;;5090670;28;20437;-76
2022/08/02 06:49:39;;;;;;;2.50;1.80;;;26.70;40.90;;;;;;5090950;28;20403;-76
2022/08/02 06:52:21;;;;;;;2.10;1.50;;;26.70;40.90;;;;;;5091015;28;20528;-76
2022/08/02 06:54:55;;;;;;;2.63;1.40;;;26.80;41.00;;;;;;5090837;28;20457;-76
2022/08/02 06:57:24;;;;;;;1.70;1.60;;;26.80;41.00;;;;;;5090864;28;20437;-77
2022/08/02 06:59:52;;;;;;;1.80;1.47;;;26.90;40.90;;;;;;5092682;28;20423;-78
2022/08/02 07:02:19;;;;;;;6.63;2.10;;;26.90;40.90;;;;;;5113889;28;20451;-78
2022/08/02 07:04:47;;;;;;;1.93;1.53;;;26.90;40.80;;;;;;5114028;28;20466;-76
2022/08/02 07:07:15;;;;;;;3.67;1.50;;;26.90;40.80;;;;;;5110645;28;20424;-76
2022/08/02 07:09:43;;;;;;;1.60;1.50;;;27.00;40.80;;;;;;5111146;28;20425;-76
2022/08/02 07:12:29;;;;;;;1.40;1.30;;;27.00;40.70;;;;;;5110813;28;20444;-77
2022/08/02 07:14:58;;;;;;;1.73;1.60;;;27.10;40.60;;;;;;5110794;28;20451;-77
2022/08/02 07:17:25;;;;;;;2.40;1.90;;;27.10;40.70;;;;;;5107327;28;20552;-77
2022/08/02 07:19:53;;;;;;;2.63;1.63;;;27.10;40.60;;;;;;5110555;28;20407;-77
2022/08/02 07:22:22;;;;;;;2.50;1.43;;;27.20;40.50;;;;;;5113267;28;20450;-78
2022/08/02 07:24:50;;;;;;;2.93;1.40;;;27.30;40.50;;;;;;5117087;28;20725;-77
2022/08/02 07:27:18;;;;;;;2.20;1.80;;;27.30;40.50;;;;;;5117013;28;20447;-77
2022/08/02 07:29:47;;;;;;;1.80;1.47;;;27.40;40.50;;;;;;5117425;28;20534;-77
2022/08/02 07:32:15;;;;;;;3.63;1.53;;;27.40;40.40;;;;;;5114574;28;20442;-78
2022/08/02 07:34:43;;;;;;;2.10;1.53;;;27.50;40.50;;;;;;5116770;28;20519;-78
2022/08/02 07:37:20;;;;;;;1.63;1.53;;;27.50;40.40;;;;;;5111893;28;20550;-77
2022/08/02 07:40:09;;;;;;;3.90;1.87;;;27.50;40.20;;;;;;5097524;28;20417;-77
2022/08/02 07:42:42;;;;;;;1.53;1.40;;;27.60;40.10;;;;;;5094215;28;20451;-78
2022/08/02 07:45:12;;;;;;;1.57;1.47;;;27.70;40.10;;;;;;5093006;28;20451;-78
2022/08/02 07:47:40;;;;;;;1.90;1.80;;;27.70;40.10;;;;;;5092355;28;20528;-78
2022/08/02 07:50:10;;;;;;;1.70;1.60;;;27.80;39.90;;;;;;5090221;28;20455;-76
2022/08/02 07:52:39;;;;;;;1.97;1.70;;;27.80;39.90;;;;;;5097532;28;20423;-77
2022/08/02 07:55:07;;;;;;;2.23;1.40;;;27.90;40.00;;;;;;5110249;28;20506;-77
2022/08/02 07:57:35;;;;;;;1.87;1.30;;;28.00;40.00;;;;;;5110257;28;20478;-77
2022/08/02 08:00:04;;;;;;;2.30;1.67;;;28.00;40.10;;;;;;5110737;28;20406;-77
2022/08/02 08:02:33;;;;;;;8.00;1.60;;;28.10;40.10;;;;;;5108473;28;20448;-77
2022/08/02 08:05:01;;;;;;;3.83;1.90;;;28.20;40.10;;;;;;5099524;28;20463;-77
2022/08/02 08:07:29;;;;;;;1.87;1.70;;;28.20;40.10;;;;;;5110355;28;20436;-77
2022/08/02 08:09:58;;;;;;;2.00;1.40;;;28.30;40.10;;;;;;5100249;28;20459;-77
2022/08/02 08:12:26;;;;;;;2.40;1.50;;;28.40;40.20;;;;;;5110747;28;20497;-77
2022/08/02 08:14:54;;;;;;;1.80;1.70;;;28.40;40.20;;;;;;5114090;28;20454;-77
2022/08/02 08:17:22;;;;;;;2.87;1.50;;;28.50;40.10;;;;;;5113923;27;20475;-77
2022/08/02 08:19:51;;;;;;;1.63;1.30;;;28.50;39.90;;;;;;5114262;28;20519;-77
2022/08/02 08:22:20;;;;;;;3.70;1.73;;;28.70;39.90;;;;;;5114145;28;20508;-77
2022/08/02 08:24:48;;;;;;;4.47;1.93;;;28.70;39.70;;;;;;5114063;28;20474;-76
2022/08/02 08:27:16;;;;;;;3.43;1.50;;;28.80;39.70;;;;;;5112232;28;20422;-78
2022/08/02 08:29:44;;;;;;;2.23;1.57;;;28.90;39.50;;;;;;5109168;28;20446;-76
2022/08/02 08:32:12;;;;;;;1.90;1.53;;;28.90;39.20;;;;;;5114345;28;20551;-76
2022/08/02 08:34:45;;;;;;;2.60;1.50;;;29.00;39.20;;;;;;5114020;28;20463;-76
2022/08/02 08:37:14;;;;;;;2.60;1.50;;;29.10;39.10;;;;;;5113859;28;20514;-77
2022/08/02 08:39:45;;;;;;;5.40;1.60;;;29.20;38.90;;;;;;5113922;28;20429;-76
2022/08/02 08:42:25;;;;;;;2.13;1.30;;;29.30;38.80;;;;;;5114098;28;20427;-77
2022/08/02 08:44:54;;;;;;;3.97;1.63;;;29.50;38.70;;;;;;5113843;28;20810;-76
2022/08/02 08:47:22;;;;;;;1.63;1.30;;;29.60;38.50;;;;;;5105654;28;20426;-77
2022/08/02 08:49:51;;;;;;;1.63;1.43;;;29.60;38.30;;;;;;5114068;28;20431;-77
2022/08/02 08:52:21;;;;;;;1.67;1.40;;;29.70;38.10;;;;;;5113678;28;20443;-77
2022/08/02 08:54:49;;;;;;;2.57;1.73;;;29.70;38.10;;;;;;5113571;28;20468;-77
2022/08/02 08:57:18;;;;;;;1.97;1.03;;;29.80;38.00;;;;;;5113639;28;20481;-77
2022/08/02 08:59:46;;;;;;;1.57;1.43;;;29.90;38.00;;;;;;5115866;28;20443;-76
2022/08/02 09:02:15;;;;;;;2.50;1.63;;;29.90;37.90;;;;;;5113741;28;20444;-76
2022/08/02 09:04:48;;;;;;;1.67;1.27;;;30.00;37.70;;;;;;5107569;28;20469;-76
2022/08/02 09:07:23;;;;;;;2.57;1.33;;;30.10;37.60;;;;;;5113184;28;20463;-76
2022/08/02 09:09:51;;;;;;;2.63;1.83;;;30.20;37.50;;;;;;5114462;28;20896;-77
2022/08/02 09:12:21;;;;;;;2.23;1.63;;;30.30;37.40;;;;;;5114114;28;20438;-77
2022/08/02 09:14:48;;;;;;;2.63;1.73;;;30.40;37.30;;;;;;5113910;28;20477;-76
2022/08/02 09:17:17;;;;;;;12.80;1.70;;;30.40;37.20;;;;;;5114964;28;20480;-82
2022/08/02 09:19:48;;;;;;;1.30;1.20;;;30.50;37.20;;;;;;5117488;28;20432;-82
2022/08/02 09:22:15;;;;;;;3.43;1.50;;;30.60;37.10;;;;;;5126662;28;20447;-81
2022/08/02 09:24:46;;;;;;;4.03;1.30;;;30.70;37.00;;;;;;5116504;28;20482;-78
2022/08/02 09:27:14;;;;;;;1.80;1.43;;;30.80;36.90;;;;;;5112593;28;20432;-83
2022/08/02 09:29:46;;;;;;;1.53;1.20;;;30.80;36.80;;;;;;5110892;28;20432;-81
2022/08/02 09:32:44;;;;;;;4.10;1.60;;;30.90;36.70;;;;;;5110485;28;20504;-82
2022/08/02 09:35:12;;;;;;;1.40;1.30;;;31.00;36.60;;;;;;5107250;28;20449;-79
2022/08/02 09:37:40;;;;;;;1.33;1.23;;;31.10;36.80;;;;;;5119901;28;20493;-79
2022/08/02 09:40:12;;;;;;;1.53;1.43;;;31.20;36.50;;;;;;5130212;28;20443;-79
2022/08/02 09:42:47;;;;;;;2.10;1.40;;;31.20;36.40;;;;;;5131357;28;20459;-79
2022/08/02 09:45:14;;;;;;;2.87;1.20;;;31.20;36.30;;;;;;5128350;28;20487;-80
2022/08/02 09:47:42;;;;;;;1.53;1.40;;;31.30;36.30;;;;;;5128018;28;20419;-79
2022/08/02 09:50:10;;;;;;;1.97;1.30;;;31.30;36.20;;;;;;5128014;28;20447;-79
2022/08/02 09:52:41;;;;;;;6.60;1.50;;;31.40;36.10;;;;;;5125210;28;20440;-79
2022/08/02 09:55:13;;;;;;;4.07;1.60;;;31.40;36.20;;;;;;5118663;28;20472;-78
2022/08/02 09:57:41;;;;;;;11.23;1.17;;;31.40;36.00;;;;;;5118868;28;20460;-78
2022/08/02 10:00:10;;;;;;;7.60;1.53;;;31.30;35.80;;;;;;5120165;28;20455;-80
2022/08/02 10:03:08;;;;;;;5.30;1.50;;;31.40;35.80;;;;;;5121112;28;20443;-79
2022/08/02 10:05:51;;;;;;;2.20;1.37;;;31.60;35.50;;;;;;5118299;28;20480;-78
2022/08/02 10:08:29;;;;;;;6.37;1.37;;;31.70;35.40;;;;;;5114058;28;20449;-78
2022/08/02 10:11:02;;;;;;;3.70;1.73;;;31.70;35.40;;;;;;5098359;28;20547;-78
2022/08/02 10:13:30;;;;;;;4.67;1.63;;;31.60;35.20;;;;;;5106667;28;20443;-77
2022/08/02 10:15:58;;;;;;;4.93;1.70;;;31.70;35.30;;;;;;5118604;28;20436;-77
2022/08/02 10:18:26;;;;;;;6.47;1.73;;;31.90;35.30;;;;;;5118601;28;20499;-78
2022/08/02 10:21:15;;;;;;;3.40;1.60;;;31.90;35.00;;;;;;5116360;28;20447;-78
2022/08/02 10:23:44;;;;;;;4.90;1.43;;;32.00;34.70;;;;;;5123021;28;20452;-78
2022/08/02 10:26:18;;;;;;;3.47;1.23;;;32.00;34.50;;;;;;5122379;28;20432;-78
2022/08/02 10:28:49;;;;;;;6.53;1.47;;;32.00;34.90;;;;;;5119901;28;20444;-78
2022/08/02 10:31:24;;;;;;;5.73;1.20;;;32.00;34.20;;;;;;5120075;28;20464;-77
2022/08/02 10:33:52;;;;;;;4.40;1.30;;;32.10;34.30;;;;;;5119966;28;20467;-78
2022/08/02 10:36:22;;;;;;;2.60;1.60;;;32.20;34.10;;;;;;5120586;28;20444;-78
2022/08/02 10:38:50;;;;;;;3.80;1.63;;;32.20;33.90;;;;;;5122208;28;20498;-77
2022/08/02 10:41:47;;;;;;;1.50;1.40;;;32.20;33.90;;;;;;5115798;28;20540;-77
2022/08/02 10:44:36;;;;;;;2.60;1.43;;;32.30;33.90;;;;;;5119182;28;20559;-77
2022/08/02 10:47:21;;;;;;;3.13;1.00;;;32.40;33.80;;;;;;5103369;28;20495;-77
2022/08/02 10:49:50;;;;;;;4.40;1.53;;;32.50;33.50;;;;;;5111483;28;20468;-78
2022/08/02 10:52:18;;;;;;;1.30;1.20;;;32.60;33.50;;;;;;5106613;28;20496;-78
2022/08/02 10:54:54;;;;;;;2.30;1.20;;;32.50;33.30;;;;;;5098845;28;20464;-79
2022/08/02 10:57:25;;;;;;;1.10;1.00;;;32.50;33.30;;;;;;5101332;28;20486;-79
2022/08/02 10:59:56;;;;;;;6.03;1.10;;;32.40;33.30;;;;;;5095867;28;20445;-78
2022/08/02 11:02:37;;;;;;;3.23;1.30;;;32.50;33.50;;;;;;5106003;28;20458;-79
2022/08/02 11:05:10;;;;;;;2.10;1.40;;;32.50;33.30;;;;;;5106008;28;20539;-78
2022/08/02 11:07:39;;;;;;;3.90;1.20;;;32.50;33.40;;;;;;5115679;28;20511;-79
2022/08/02 11:10:30;;;;;;;1.40;1.30;;;32.70;33.40;;;;;;5112998;28;20444;-78
2022/08/02 11:13:00;;;;;;;4.60;1.10;;;32.90;32.90;;;;;;5111918;28;20428;-78
2022/08/02 11:15:29;;;;;;;1.53;1.30;;;33.00;32.90;;;;;;5110698;28;20470;-78
2022/08/02 11:17:58;;;;;;;2.13;1.57;;;33.10;32.80;;;;;;5103541;28;20474;-78
2022/08/02 11:20:26;;;;;;;1.83;1.53;;;33.20;32.60;;;;;;5112142;28;20551;-78
2022/08/02 11:22:55;;;;;;;1.30;1.10;;;33.40;32.50;;;;;;5111982;28;20488;-78
2022/08/02 11:25:33;;;;;;;2.33;1.10;;;33.60;32.40;;;;;;5117879;28;20464;-79
2022/08/02 11:28:22;;;;;;;4.83;1.40;;;34.20;31.70;;;;;;5122847;28;20424;-79
2022/08/02 11:30:59;;;;;;;1.70;1.40;;;35.40;30.40;;;;;;5123272;28;20493;-79
2022/08/02 11:33:31;;;;;;;1.90;1.23;;;36.10;29.30;;;;;;5123935;28;20471;-79
2022/08/02 11:36:03;;;;;;;1.47;1.13;;;36.70;28.80;;;;;;5115493;28;20451;-79
2022/08/02 11:38:31;;;;;;;2.30;0.90;;;36.90;28.40;;;;;;5122391;28;20451;-79
2022/08/02 11:41:02;;;;;;;1.13;0.87;;;37.30;28.20;;;;;;5126853;28;20460;-79
2022/08/02 11:43:38;;;;;;;1.00;1.00;;;37.70;27.90;;;;;;5124566;28;20490;-79
2022/08/02 11:46:12;;;;;;;3.60;0.80;;;38.10;27.40;;;;;;5125753;28;20463;-79
2022/08/02 11:48:41;;;;;;;2.70;1.13;;;38.10;27.00;;;;;;5129055;28;20467;-79
2022/08/02 11:51:12;;;;;;;1.20;1.10;;;38.20;27.10;;;;;;5121188;28;20484;-79
2022/08/02 11:53:44;;;;;;;3.23;0.80;;;38.20;27.00;;;;;;5124358;28;20483;-79
2022/08/02 11:56:13;;;;;;;1.10;1.10;;;38.00;27.40;;;;;;5126281;28;20446;-79
2022/08/02 11:59:06;;;;;;;1.10;1.00;;;38.10;27.20;;;;;;5127683;28;20501;-79
2022/08/02 12:01:35;;;;;;;0.87;0.80;;;38.20;27.30;;;;;;5126807;28;20535;-79
2022/08/02 12:04:18;;;;;;;1.10;1.10;;;38.00;27.40;;;;;;5127012;28;20463;-78
2022/08/02 12:06:57;;;;;;;0.93;0.90;;;38.30;27.30;;;;;;5117874;28;20444;-79
2022/08/02 12:09:26;;;;;;;0.90;0.90;;;38.50;26.80;;;;;;5127361;28;20921;-79
2022/08/02 12:11:54;;;;;;;1.27;1.10;;;38.80;27.20;;;;;;5127408;28;20449;-78
2022/08/02 12:14:23;;;;;;;1.53;0.80;;;38.70;26.70;;;;;;5127110;28;20550;-79
2022/08/02 12:19:37;;;;;;;1.80;0.90;;;38.30;27.30;;;;;;5125917;28;20956;-79
2022/08/02 12:22:09;;;;;;;0.90;0.90;;;38.10;27.40;;;;;;5122141;28;20523;-79
2022/08/02 12:24:38;;;;;;;1.40;1.30;;;37.80;27.70;;;;;;5127296;28;20451;-78
2022/08/02 12:27:05;;;;;;;1.00;1.00;;;37.60;28.10;;;;;;5127751;28;20515;-78
2022/08/02 12:29:36;;;;;;;1.00;1.00;;;37.30;28.30;;;;;;5128585;28;20454;-78
2022/08/02 12:32:24;;;;;;;1.30;1.20;;;37.60;28.30;;;;;;5118993;28;20436;-78
2022/08/02 12:35:04;;;;;;;1.53;1.23;;;38.00;28.10;;;;;;5120950;28;20542;-78
2022/08/02 12:37:32;;;;;;;1.67;0.90;;;38.30;27.60;;;;;;5120828;28;20432;-78
2022/08/02 12:40:22;;;;;;;3.47;1.30;;;38.80;27.40;;;;;;5115083;28;20482;-78
2022/08/02 12:42:54;;;;;;;1.87;1.27;;;39.00;27.10;;;;;;5120560;28;20420;-78
2022/08/02 12:45:23;;;;;;;2.20;1.33;;;39.30;26.90;;;;;;5121709;28;20462;-78
2022/08/02 12:47:51;;;;;;;1.60;1.00;;;39.30;26.90;;;;;;5121336;28;20459;-78
2022/08/02 12:50:21;;;;;;;1.83;1.20;;;39.10;27.00;;;;;;5119015;28;20450;-78
2022/08/02 12:52:49;;;;;;;1.10;1.10;;;39.10;27.00;;;;;;5122287;28;20504;-78
2022/08/02 12:55:18;;;;;;;3.13;1.23;;;39.10;26.90;;;;;;5119986;28;20538;-78
2022/08/02 12:57:56;;;;;;;1.00;1.00;;;38.70;27.50;;;;;;5112854;28;20538;-78
2022/08/02 13:00:26;;;;;;;1.40;1.30;;;38.80;27.30;;;;;;5120048;28;20492;-78
2022/08/02 13:02:54;;;;;;;1.30;1.20;;;38.60;27.60;;;;;;5121159;28;20457;-78
2022/08/02 13:05:22;;;;;;;1.33;1.23;;;38.60;27.60;;;;;;5120412;28;20468;-78
2022/08/02 13:07:50;;;;;;;1.27;1.10;;;38.60;27.70;;;;;;5119798;28;20448;-78
2022/08/02 13:10:18;;;;;;;2.33;1.23;;;38.60;27.80;;;;;;5119396;28;20511;-78
2022/08/02 13:12:46;;;;;;;2.33;1.30;;;38.50;27.80;;;;;;5119004;28;20962;-78